createdAt,value
2018-02-18T00:01:54.020Z,23.33
2018-02-18T00:04:21.832Z,23.40
2018-02-18T00:06:49.498Z,23.03
2018-02-18T00:09:17.020Z,24.50
2018-02-18T00:11:44.644Z,25.17
2018-02-18T00:14:13.246Z,23.27
2018-02-18T00:16:40.750Z,23.40
2018-02-18T00:19:08.869Z,24.23
2018-02-18T00:21:36.378Z,23.03
2018-02-18T00:24:03.899Z,22.37
2018-02-18T00:26:31.476Z,24.33
2018-02-18T00:28:59.039Z,22.60
2018-02-18T00:31:26.548Z,21.33
2018-02-18T00:33:54.304Z,25.23
2018-02-18T00:36:22.308Z,26.13
2018-02-18T00:38:49.829Z,23.40
2018-02-18T00:41:17.365Z,24.83
2018-02-18T00:43:44.880Z,24.37
2018-02-18T00:46:12.728Z,28.47
2018-02-18T00:48:40.392Z,28.93
2018-02-18T00:51:08.125Z,29.40
2018-02-18T00:53:35.640Z,26.67
2018-02-18T00:56:04.512Z,27.73
2018-02-18T00:58:32.039Z,27.47
2018-02-18T01:00:59.548Z,24.33
2018-02-18T01:03:27.064Z,29.90
2018-02-18T01:05:54.817Z,27.80
2018-02-18T01:08:22.339Z,27.77
2018-02-18T01:10:50.054Z,29.10
2018-02-18T01:13:17.783Z,27.30
2018-02-18T01:15:45.638Z,30.33
2018-02-18T01:18:13.486Z,31.23
2018-02-18T01:20:41.140Z,27.13
2018-02-18T01:23:08.714Z,28.77
2018-02-18T01:25:36.223Z,27.53
2018-02-18T01:28:03.780Z,26.33
2018-02-18T01:30:31.295Z,27.90
2018-02-18T01:32:59.003Z,28.60
2018-02-18T01:35:27.177Z,29.67
2018-02-18T01:37:54.740Z,26.20
2018-02-18T01:40:22.257Z,29.47
2018-02-18T01:42:50.072Z,30.17
2018-02-18T01:45:17.832Z,26.83
2018-02-18T01:47:45.688Z,29.37
2018-02-18T01:50:25.187Z,27.53
2018-02-18T01:52:52.682Z,25.27
2018-02-18T01:55:20.196Z,27.57
2018-02-18T01:57:47.747Z,24.13
2018-02-18T02:00:15.260Z,24.93
2018-02-18T02:02:42.752Z,26.97
2018-02-18T02:05:10.485Z,27.40
2018-02-18T02:07:38.184Z,25.20
2018-02-18T02:10:05.695Z,26.07
2018-02-18T02:12:33.200Z,26.60
2018-02-18T02:15:00.724Z,27.13
2018-02-18T02:17:28.222Z,24.93
2018-02-18T02:19:55.744Z,22.60
2018-02-18T02:22:23.240Z,27.37
2018-02-18T02:24:50.807Z,22.10
2018-02-18T02:27:18.379Z,22.00
2018-02-18T02:29:45.884Z,21.57
2018-02-18T02:32:13.832Z,20.57
2018-02-18T02:34:41.327Z,19.80
2018-02-18T02:37:08.845Z,18.60
2018-02-18T02:39:36.556Z,17.57
2018-02-18T02:42:04.197Z,15.17
2018-02-18T02:44:31.796Z,15.33
2018-02-18T02:46:59.752Z,15.17
2018-02-18T02:49:27.256Z,15.50
2018-02-18T02:51:54.833Z,16.03
2018-02-18T02:54:22.332Z,16.23
2018-02-18T02:56:49.861Z,18.50
2018-02-18T02:59:17.360Z,26.87
2018-02-18T03:01:44.927Z,25.57
2018-02-18T03:04:12.424Z,25.43
2018-02-18T03:06:40.229Z,25.53
2018-02-18T03:09:07.747Z,27.80
2018-02-18T03:11:35.267Z,26.90
2018-02-18T03:14:02.897Z,26.23
2018-02-18T03:16:30.817Z,27.00
2018-02-18T03:18:58.317Z,21.90
2018-02-18T03:21:25.884Z,18.87
2018-02-18T03:23:53.446Z,18.93
2018-02-18T03:26:20.988Z,19.57
2018-02-18T03:28:48.479Z,17.67
2018-02-18T03:31:16.493Z,18.80
2018-02-18T03:33:43.987Z,18.00
2018-02-18T03:36:11.854Z,18.97
2018-02-18T03:38:39.362Z,18.03
2018-02-18T03:41:07.257Z,17.73
2018-02-18T03:43:34.772Z,19.13
2018-02-18T03:46:02.728Z,17.83
2018-02-18T03:48:30.779Z,17.93
2018-02-18T03:50:58.356Z,16.57
2018-02-18T03:53:25.852Z,15.83
2018-02-18T03:55:53.344Z,16.63
2018-02-18T03:58:20.884Z,15.50
2018-02-18T04:00:48.384Z,15.27
2018-02-18T04:03:15.987Z,14.83
2018-02-18T04:05:43.593Z,15.20
2018-02-18T04:08:11.311Z,17.60
2018-02-18T04:10:38.804Z,16.70
2018-02-18T04:13:06.681Z,18.57
2018-02-18T04:15:34.188Z,18.03
2018-02-18T04:18:01.803Z,17.97
2018-02-18T04:20:29.269Z,16.80
2018-02-18T04:22:56.794Z,19.43
2018-02-18T04:25:24.290Z,18.13
2018-02-18T04:27:51.841Z,19.57
2018-02-18T04:30:19.536Z,17.80
2018-02-18T04:32:47.339Z,17.37
2018-02-18T04:35:14.857Z,18.77
2018-02-18T04:37:42.528Z,20.93
2018-02-18T04:40:10.024Z,20.20
2018-02-18T04:42:37.572Z,18.53
2018-02-18T04:45:05.149Z,19.23
2018-02-18T04:47:32.797Z,18.77
2018-02-18T04:50:00.518Z,19.87
2018-02-18T04:52:28.100Z,22.17
2018-02-18T04:54:55.835Z,20.80
2018-02-18T04:57:23.352Z,20.97
2018-02-18T04:59:50.977Z,19.93
2018-02-18T05:02:18.869Z,18.50
2018-02-18T05:04:46.608Z,20.63
2018-02-18T05:07:14.104Z,21.07
2018-02-18T05:09:41.782Z,24.33
2018-02-18T05:12:09.438Z,24.60
2018-02-18T05:14:38.294Z,23.57
2018-02-18T05:17:06.128Z,23.47
2018-02-18T05:19:33.647Z,24.33
2018-02-18T05:22:01.145Z,23.00
2018-02-18T05:24:36.819Z,23.80
2018-02-18T05:27:04.615Z,25.17
2018-02-18T05:29:32.310Z,23.27
2018-02-18T05:32:00.227Z,23.63
2018-02-18T05:34:27.980Z,23.60
2018-02-18T05:36:55.469Z,23.97
2018-02-18T05:39:23.314Z,23.00
2018-02-18T05:41:50.865Z,20.87
2018-02-18T05:44:18.679Z,22.97
2018-02-18T05:46:46.176Z,23.03
2018-02-18T05:49:13.708Z,24.70
2018-02-18T05:51:41.304Z,23.83
2018-02-18T05:54:08.832Z,23.23
2018-02-18T05:56:36.332Z,23.37
2018-02-18T05:59:03.853Z,22.47
2018-02-18T06:01:31.446Z,23.23
2018-02-18T06:03:58.995Z,24.37
2018-02-18T06:06:26.510Z,23.83
2018-02-18T06:08:54.291Z,22.80
2018-02-18T06:11:21.939Z,23.23
2018-02-18T06:13:49.651Z,24.20
2018-02-18T06:16:17.181Z,23.33
2018-02-18T06:18:44.701Z,22.47
2018-02-18T06:21:12.496Z,24.17
2018-02-18T06:23:40.095Z,21.70
2018-02-18T06:26:07.653Z,21.17
2018-02-18T06:28:35.193Z,19.57
2018-02-18T06:31:02.830Z,20.33
2018-02-18T06:33:30.325Z,22.07
2018-02-18T06:35:58.147Z,19.17
2018-02-18T06:38:26.208Z,20.23
2018-02-18T06:40:53.786Z,21.67
2018-02-18T06:43:26.608Z,20.23
2018-02-18T06:45:55.152Z,21.33
2018-02-18T06:48:23.839Z,18.67
2018-02-18T06:50:51.362Z,20.97
2018-02-18T06:53:18.996Z,20.10
2018-02-18T06:55:46.552Z,19.93
2018-02-18T06:58:14.355Z,20.13
2018-02-18T07:00:42.166Z,19.73
2018-02-18T07:03:09.743Z,22.47
2018-02-18T07:05:37.261Z,20.63
2018-02-18T07:08:04.753Z,20.97
2018-02-18T07:10:32.280Z,19.67
2018-02-18T07:12:59.795Z,21.67
2018-02-18T07:15:27.324Z,21.30
2018-02-18T07:17:54.920Z,20.47
2018-02-18T07:20:22.441Z,19.40
2018-02-18T07:22:50.263Z,21.77
2018-02-18T07:25:17.782Z,19.30
2018-02-18T07:27:45.688Z,19.07
2018-02-18T07:30:13.207Z,18.83
2018-02-18T07:32:40.699Z,19.37
2018-02-18T07:35:08.486Z,16.87
2018-02-18T07:37:36.421Z,16.97
2018-02-18T07:40:04.589Z,17.60
2018-02-18T07:42:32.277Z,18.43
2018-02-18T07:44:59.780Z,18.40
2018-02-18T07:47:27.299Z,18.53
2018-02-18T07:49:54.815Z,18.03
2018-02-18T07:52:22.371Z,20.27
2018-02-18T07:54:49.881Z,19.17
2018-02-18T07:57:17.404Z,21.07
2018-02-18T07:59:44.944Z,17.73
2018-02-18T08:02:12.964Z,19.87
2018-02-18T08:04:40.532Z,16.70
2018-02-18T08:07:08.264Z,18.03
2018-02-18T08:09:35.810Z,19.53
2018-02-18T08:12:03.325Z,20.07
2018-02-18T08:14:30.876Z,22.13
2018-02-18T08:16:58.681Z,19.57
2018-02-18T08:19:26.359Z,21.83
2018-02-18T08:21:53.931Z,21.70
2018-02-18T08:24:21.686Z,20.53
2018-02-18T08:26:49.327Z,18.80
2018-02-18T08:29:17.032Z,20.97
2018-02-18T08:31:44.565Z,22.27
2018-02-18T08:34:12.056Z,22.13
2018-02-18T08:36:39.832Z,24.13
2018-02-18T08:39:07.354Z,23.47
2018-02-18T08:41:34.877Z,23.50
2018-02-18T08:44:02.377Z,23.20
2018-02-18T08:46:29.908Z,21.73
2018-02-18T08:48:57.400Z,21.50
2018-02-18T08:51:25.006Z,22.57
2018-02-18T08:53:52.972Z,22.03
2018-02-18T08:56:20.480Z,24.17
2018-02-18T08:58:48.075Z,23.57
2018-02-18T09:01:15.740Z,21.80
2018-02-18T09:03:43.284Z,22.83
2018-02-18T09:06:10.779Z,20.17
2018-02-18T09:08:38.292Z,21.10
2018-02-18T09:11:05.834Z,20.60
2018-02-18T09:13:33.345Z,19.33
2018-02-18T09:16:00.854Z,21.17
2018-02-18T09:18:28.374Z,19.93
2018-02-18T09:20:56.103Z,20.50
2018-02-18T09:23:23.763Z,19.20
2018-02-18T09:25:51.352Z,20.47
2018-02-18T09:28:18.885Z,19.70
2018-02-18T09:30:46.376Z,17.97
2018-02-18T09:33:14.229Z,18.40
2018-02-18T09:35:41.732Z,19.17
2018-02-18T09:38:09.270Z,19.33
2018-02-18T09:40:36.852Z,19.60
2018-02-18T09:43:04.396Z,19.00
2018-02-18T09:45:31.940Z,18.60
2018-02-18T09:47:59.432Z,17.70
2018-02-18T09:50:26.949Z,19.67
2018-02-18T09:52:54.463Z,20.93
2018-02-18T09:55:21.982Z,19.57
2018-02-18T09:57:49.484Z,19.83
2018-02-18T10:00:16.999Z,20.97
2018-02-18T10:02:44.651Z,20.63
2018-02-18T10:05:13.169Z,19.50
2018-02-18T10:07:40.668Z,20.37
2018-02-18T10:10:08.185Z,19.70
2018-02-18T10:12:35.685Z,20.87
2018-02-18T10:15:03.336Z,19.27
2018-02-18T10:17:30.828Z,20.20
2018-02-18T10:19:58.355Z,22.43
2018-02-18T10:22:25.856Z,20.57
2018-02-18T10:24:53.380Z,23.20
2018-02-18T10:27:20.887Z,22.87
2018-02-18T10:29:48.405Z,20.67
2018-02-18T10:32:15.900Z,21.67
2018-02-18T10:34:43.447Z,19.57
2018-02-18T10:37:10.939Z,18.40
2018-02-18T10:39:38.471Z,16.40
2018-02-18T10:42:05.972Z,16.23
2018-02-18T10:44:33.508Z,23.40
2018-02-18T10:47:01.043Z,20.67
2018-02-18T10:49:28.557Z,20.30
2018-02-18T10:51:56.072Z,19.17
2018-02-18T10:54:23.572Z,19.57
2018-02-18T10:56:51.141Z,20.67
2018-02-18T10:59:18.765Z,18.80
2018-02-18T11:01:46.290Z,16.43
2018-02-18T11:04:13.805Z,16.37
2018-02-18T11:06:41.319Z,16.00
2018-02-18T11:09:09.265Z,16.83
2018-02-18T11:11:36.785Z,15.43
2018-02-18T11:14:04.364Z,17.93
2018-02-18T11:16:32.825Z,18.30
2018-02-18T11:19:00.321Z,18.43
2018-02-18T11:21:27.857Z,19.13
2018-02-18T11:23:55.349Z,18.90
2018-02-18T11:26:22.864Z,19.60
2018-02-18T11:28:50.359Z,19.90
2018-02-18T11:31:17.876Z,19.60
2018-02-18T11:33:45.372Z,18.30
2018-02-18T11:36:13.063Z,17.83
2018-02-18T11:38:40.564Z,20.30
2018-02-18T11:41:08.149Z,20.17
2018-02-18T11:43:35.639Z,18.60
2018-02-18T11:46:03.164Z,15.70
2018-02-18T11:48:30.716Z,17.37
2018-02-18T11:50:58.251Z,16.73
2018-02-18T11:53:25.945Z,19.13
2018-02-18T11:55:53.526Z,18.60
2018-02-18T11:58:21.817Z,18.50
2018-02-18T12:00:49.334Z,17.37
2018-02-18T12:03:17.771Z,17.60
2018-02-18T12:05:45.304Z,17.30
2018-02-18T12:08:12.819Z,17.40
2018-02-18T12:10:40.624Z,16.57
2018-02-18T12:13:08.155Z,18.50
2018-02-18T12:15:35.663Z,17.27
2018-02-18T12:18:03.204Z,18.17
2018-02-18T12:20:30.728Z,17.67
2018-02-18T12:22:58.237Z,17.60
2018-02-18T12:25:25.728Z,18.53
2018-02-18T12:27:53.868Z,18.77
2018-02-18T12:30:21.562Z,19.53
2018-02-18T12:32:49.152Z,19.13
2018-02-18T12:35:16.635Z,17.73
2018-02-18T12:37:44.171Z,17.37
2018-02-18T12:40:11.704Z,17.87
2018-02-18T12:42:39.232Z,19.17
2018-02-18T12:45:06.734Z,17.37
2018-02-18T12:47:34.328Z,17.93
2018-02-18T12:50:02.791Z,19.57
2018-02-18T12:52:30.315Z,18.57
2018-02-18T12:54:57.803Z,17.40
2018-02-18T12:57:25.316Z,17.97
2018-02-18T12:59:52.812Z,15.57
2018-02-18T13:02:20.391Z,16.10
2018-02-18T13:04:47.924Z,16.77
2018-02-18T13:07:15.443Z,16.90
2018-02-18T13:09:42.949Z,15.40
2018-02-18T13:12:10.473Z,16.30
2018-02-18T13:14:37.984Z,16.33
2018-02-18T13:17:05.531Z,15.53
2018-02-18T13:19:33.051Z,15.53
2018-02-18T13:22:00.540Z,15.63
2018-02-18T13:24:28.057Z,15.67
2018-02-18T13:26:55.610Z,14.57
2018-02-18T13:29:23.108Z,14.90
2018-02-18T13:31:50.608Z,13.80
2018-02-18T13:34:18.123Z,14.60
2018-02-18T13:36:45.653Z,13.90
2018-02-18T13:39:13.224Z,13.30
2018-02-18T13:41:40.721Z,14.23
2018-02-18T13:44:08.400Z,12.30
2018-02-18T13:46:35.903Z,13.67
2018-02-18T13:49:04.345Z,13.07
2018-02-18T13:51:31.844Z,12.87
2018-02-18T13:53:59.439Z,13.43
2018-02-18T13:56:27.932Z,12.63
2018-02-18T13:58:55.443Z,12.93
2018-02-18T14:01:22.965Z,14.10
2018-02-18T14:03:50.695Z,13.77
2018-02-18T14:06:18.195Z,13.33
2018-02-18T14:08:45.838Z,13.40
2018-02-18T14:11:13.523Z,14.20
2018-02-18T14:13:41.044Z,13.70
2018-02-18T14:16:08.575Z,13.47
2018-02-18T14:18:36.088Z,13.67
2018-02-18T14:21:03.673Z,14.50
2018-02-18T14:23:31.190Z,14.43
2018-02-18T14:25:58.681Z,13.47
2018-02-18T14:28:26.278Z,14.07
2018-02-18T14:30:53.848Z,15.13
2018-02-18T14:33:21.355Z,13.70
2018-02-18T14:35:48.912Z,12.47
2018-02-18T14:38:16.420Z,13.13
2018-02-18T14:40:43.936Z,14.47
2018-02-18T14:43:23.445Z,13.23
2018-02-18T14:46:02.775Z,13.03
2018-02-18T14:48:42.155Z,14.13
2018-02-18T14:51:21.636Z,15.37
2018-02-18T14:54:01.191Z,14.07
2018-02-18T14:56:40.747Z,14.37
2018-02-18T14:59:08.270Z,14.00
2018-02-18T15:01:35.767Z,15.57
2018-02-18T15:04:03.279Z,15.03
2018-02-18T15:06:30.809Z,16.13
2018-02-18T15:08:58.320Z,15.97
2018-02-18T15:11:25.916Z,17.50
2018-02-18T15:13:53.439Z,14.57
2018-02-18T15:16:20.951Z,15.20
2018-02-18T15:18:48.435Z,14.53
2018-02-18T15:21:16.920Z,17.10
2018-02-18T15:23:44.471Z,15.83
2018-02-18T15:26:11.993Z,15.40
2018-02-18T15:28:39.479Z,15.37
2018-02-18T15:31:06.987Z,15.80
2018-02-18T15:33:34.552Z,14.83
2018-02-18T15:36:02.060Z,15.30
2018-02-18T15:38:29.632Z,16.30
2018-02-18T15:40:57.172Z,16.97
2018-02-18T15:43:24.674Z,17.73
2018-02-18T15:45:52.198Z,16.60
2018-02-18T15:48:19.721Z,15.37
2018-02-18T15:50:47.240Z,16.07
2018-02-18T15:53:14.736Z,17.27
2018-02-18T15:55:42.279Z,16.60
2018-02-18T15:58:09.772Z,16.23
2018-02-18T16:00:37.408Z,15.87
2018-02-18T16:03:04.909Z,16.50
2018-02-18T16:05:32.524Z,15.63
2018-02-18T16:08:00.021Z,15.07
2018-02-18T16:10:27.580Z,17.37
2018-02-18T16:12:55.093Z,18.30
2018-02-18T16:15:22.611Z,21.07
2018-02-18T16:17:50.104Z,18.70
2018-02-18T16:20:17.636Z,17.30
2018-02-18T16:22:45.127Z,18.67
2018-02-18T16:25:14.660Z,17.03
2018-02-18T16:27:42.152Z,18.23
2018-02-18T16:30:09.684Z,18.47
2018-02-18T16:32:37.212Z,18.20
2018-02-18T16:35:04.731Z,17.47
2018-02-18T16:37:32.252Z,17.30
2018-02-18T16:39:59.743Z,17.80
2018-02-18T16:42:27.526Z,17.90
2018-02-18T16:44:55.036Z,18.10
2018-02-18T16:47:22.592Z,19.20
2018-02-18T16:49:50.084Z,20.93
2018-02-18T16:52:17.602Z,19.17
2018-02-18T16:54:45.111Z,20.00
2018-02-18T16:57:12.677Z,18.53
2018-02-18T16:59:40.167Z,19.03
2018-02-18T17:02:07.689Z,19.30
2018-02-18T17:04:35.184Z,19.63
2018-02-18T17:07:02.720Z,20.77
2018-02-18T17:09:30.216Z,21.60
2018-02-18T17:11:57.733Z,21.40
2018-02-18T17:14:25.221Z,21.97
2018-02-18T17:16:52.735Z,20.57
2018-02-18T17:19:20.239Z,20.33
2018-02-18T17:21:47.751Z,20.57
2018-02-18T17:24:15.242Z,21.80
2018-02-18T17:26:42.766Z,21.87
2018-02-18T17:29:10.259Z,20.27
2018-02-18T17:31:37.800Z,21.13
2018-02-18T17:34:05.295Z,22.63
2018-02-18T17:36:32.795Z,22.83
2018-02-18T17:39:00.323Z,21.67
2018-02-18T17:41:27.865Z,21.80
2018-02-18T17:43:55.386Z,22.87
2018-02-18T17:46:22.902Z,25.43
2018-02-18T17:48:50.414Z,25.50
2018-02-18T17:51:17.976Z,22.10
2018-02-18T17:53:45.534Z,22.90
2018-02-18T17:56:13.039Z,24.27
2018-02-18T17:58:40.576Z,23.13
2018-02-18T18:01:08.165Z,20.93
2018-02-18T18:03:35.708Z,19.53
2018-02-18T18:06:03.343Z,20.90
2018-02-18T18:08:30.887Z,17.43
2018-02-18T18:10:58.457Z,16.27
2018-02-18T18:13:25.988Z,18.13
2018-02-18T18:15:53.503Z,18.97
2018-02-18T18:18:21.117Z,18.43
2018-02-18T18:20:48.712Z,18.03
2018-02-18T18:23:16.364Z,17.97
2018-02-18T18:25:43.859Z,17.63
2018-02-18T18:28:11.442Z,17.77
2018-02-18T18:30:38.935Z,16.83
2018-02-18T18:33:06.535Z,17.77
2018-02-18T18:35:34.041Z,18.90
2018-02-18T18:38:01.580Z,17.63
2018-02-18T18:40:29.126Z,18.33
2018-02-18T18:42:56.680Z,19.43
2018-02-18T18:45:24.224Z,17.80
2018-02-18T18:47:51.764Z,16.87
2018-02-18T18:50:19.289Z,15.30
2018-02-18T18:52:46.799Z,17.93
2018-02-18T18:55:14.324Z,16.77
2018-02-18T18:57:41.832Z,16.83
2018-02-18T19:00:09.392Z,13.70
2018-02-18T19:02:36.907Z,15.57
2018-02-18T19:05:07.213Z,13.47
2018-02-18T19:07:36.651Z,15.30
2018-02-18T19:10:04.336Z,13.67
2018-02-18T19:12:31.831Z,12.97
2018-02-18T19:14:59.343Z,16.50
2018-02-18T19:17:26.833Z,17.87
2018-02-18T19:19:54.393Z,13.30
2018-02-18T19:22:21.892Z,14.13
2018-02-18T19:24:49.417Z,14.57
2018-02-18T19:27:16.938Z,13.40
2018-02-18T19:29:44.477Z,13.17
2018-02-18T19:32:11.968Z,13.53
2018-02-18T19:34:39.509Z,14.03
2018-02-18T19:37:07.073Z,15.00
2018-02-18T19:39:34.625Z,13.67
2018-02-18T19:42:02.125Z,14.90
2018-02-18T19:44:29.636Z,15.47
2018-02-18T19:46:57.138Z,16.37
2018-02-18T19:49:24.653Z,15.73
2018-02-18T19:51:52.147Z,14.27
2018-02-18T19:54:19.676Z,15.77
2018-02-18T19:56:47.184Z,15.03
2018-02-18T19:59:14.721Z,14.73
2018-02-18T20:01:42.249Z,15.67
2018-02-18T20:04:09.749Z,14.87
2018-02-18T20:06:37.281Z,12.80
2018-02-18T20:09:04.793Z,12.27
2018-02-18T20:11:32.714Z,14.30
2018-02-18T20:14:00.216Z,14.47
2018-02-18T20:16:27.736Z,13.23
2018-02-18T20:18:55.273Z,14.13
2018-02-18T20:21:22.819Z,15.60
2018-02-18T20:23:50.316Z,14.37
2018-02-18T20:26:17.846Z,12.63
2018-02-18T20:28:45.505Z,15.13
2018-02-18T20:31:13.020Z,14.97
2018-02-18T20:33:40.507Z,18.13
2018-02-18T20:36:08.021Z,15.73
2018-02-18T20:38:35.520Z,16.17
2018-02-18T20:41:03.040Z,14.67
2018-02-18T20:43:30.845Z,16.17
2018-02-18T20:45:58.369Z,15.63
2018-02-18T20:48:25.884Z,14.73
2018-02-18T20:50:53.409Z,14.40
2018-02-18T20:53:20.924Z,17.33
2018-02-18T20:55:48.440Z,17.67
2018-02-18T20:58:15.935Z,17.97
2018-02-18T21:00:43.452Z,15.97
2018-02-18T21:03:10.952Z,16.87
2018-02-18T21:05:39.469Z,16.23
2018-02-18T21:08:06.955Z,14.40
2018-02-18T21:10:34.483Z,15.77
2018-02-18T21:13:02.064Z,18.43
2018-02-18T21:15:29.665Z,16.33
2018-02-18T21:17:57.162Z,16.43
2018-02-18T21:20:24.916Z,18.27
2018-02-18T21:22:52.459Z,20.73
2018-02-18T21:25:20.042Z,21.17
2018-02-18T21:27:47.586Z,22.20
2018-02-18T21:30:15.096Z,23.47
2018-02-18T21:32:42.609Z,24.23
2018-02-18T21:35:10.104Z,20.30
2018-02-18T21:37:37.618Z,19.13
2018-02-18T21:40:05.103Z,20.00
2018-02-18T21:42:32.620Z,20.83
2018-02-18T21:45:00.117Z,18.30
2018-02-18T21:47:27.652Z,20.13
2018-02-18T21:49:55.147Z,18.53
2018-02-18T21:52:22.785Z,16.47
2018-02-18T21:54:50.592Z,20.20
2018-02-18T21:57:18.305Z,18.40
2018-02-18T21:59:45.797Z,16.93
2018-02-18T22:02:13.308Z,15.33
2018-02-18T22:04:40.823Z,24.47
2018-02-18T22:07:08.440Z,25.57
2018-02-18T22:09:35.969Z,20.57
2018-02-18T22:12:03.503Z,19.83
2018-02-18T22:14:31.006Z,17.37
2018-02-18T22:16:58.548Z,19.10
2018-02-18T22:19:26.042Z,16.70
2018-02-18T22:21:53.552Z,17.37
2018-02-18T22:24:21.088Z,24.63
2018-02-18T22:26:48.620Z,25.43
2018-02-18T22:29:16.304Z,29.33
2018-02-18T22:31:43.816Z,29.57
2018-02-18T22:34:11.304Z,33.80
2018-02-18T22:36:38.799Z,29.70
2018-02-18T22:39:06.348Z,29.13
2018-02-18T22:41:33.888Z,31.90
2018-02-18T22:44:01.412Z,31.97
2018-02-18T22:46:30.319Z,31.13
2018-02-18T22:48:57.908Z,30.93
2018-02-18T22:51:25.408Z,35.50
2018-02-18T22:53:52.926Z,32.13
2018-02-18T22:56:20.510Z,32.30
2018-02-18T22:58:48.060Z,32.97
2018-02-18T23:01:15.624Z,36.87
2018-02-18T23:03:43.238Z,37.73
2018-02-18T23:06:10.793Z,34.77
2018-02-18T23:08:38.460Z,34.50
2018-02-18T23:11:05.968Z,35.67
2018-02-18T23:13:33.488Z,38.87
2018-02-18T23:16:00.992Z,46.43
2018-02-18T23:18:28.542Z,46.73
2018-02-18T23:21:07.970Z,42.83
2018-02-18T23:23:35.506Z,45.80
2018-02-18T23:26:03.049Z,48.97
2018-02-18T23:28:30.796Z,48.47
2018-02-18T23:30:58.294Z,49.40
2018-02-18T23:33:26.089Z,49.83
2018-02-18T23:35:53.768Z,51.87
2018-02-18T23:38:21.288Z,53.00
2018-02-18T23:40:48.812Z,50.37
2018-02-18T23:43:16.440Z,53.27
2018-02-18T23:45:43.955Z,53.33
2018-02-18T23:48:11.731Z,50.93
2018-02-18T23:50:39.232Z,50.03
2018-02-18T23:53:07.130Z,50.07
2018-02-18T23:55:35.016Z,49.07
2018-02-18T23:58:02.625Z,49.57
